Airfield :







YOU CAN JOIN US ON...

 
LOGIN :

Register | Disclaimer

   EN    FR    IT 

 









Legend :    VFR   Marginal VFR   IFR   Intensive IFR   Very Intensive IFR
Visi :
Ceiling :
>= 8 km
>= 3000ft
5 to 8 km
1000 to 3000 ft
1500m to 5 km
500 to 1000 ft
800 to 1500m
200 to 500 ft
< 800m
< 200 ft
Symbols :   Thunderstorms  Fog  Heavy snow  Heavy precipitations  Wind > 20 kt






- Airport Elevation : 56 ft


KRKD - Knox County Regional

CURRENT METAR :
  • 230156Z AUTO 29018G27KT 10SM SCT040 02/M03 A2952 RMK AO2 PK WND 28027/0153 SLP996 T00221028 FZRANO

EXPIRED METARs :
  • 230056Z AUTO 29021G31KT 10SM CLR 03/M01 A2948 RMK AO2 PK WND 28031/0049 SLP984 T00331011
  • 222356Z AUTO 27015KT 10SM FEW046 SCT070 BKN090 04/03 A2946 RMK AO2 RAE11 SLP976 P0001 60025 T00440028 10094 20044 53005

TAF KRKD
Valid from the 23 at 02:00 until the 24 at 00:00 UTC


230132Z 2302/2324 29021G31KT P6SM SKC
FM230400 28012KT P6SM BKN100
FM231500 26010KT P6SM SKC AMD LTD TO CLD VIS AND WIND



MET'MAP, your aeronautical weather chart ! - Copyright ORBIFLY December 2007 - Disclaimer

ORBIFLY MET'MAP TEAM :

Programming & Development : Alexandra Zaïnal
Concept & Development : Baudouin d'Aumeries
Co-Development & Prog : Marc-Olivier Méhu
Technical & hardware support : Manuel Goepfert

Contact : metmap@orbifly.com




SOURCES & CREDITS :

   NOAA